createdAt,value
2018-03-31T00:00:12.771Z,100246.63
2018-03-31T00:02:38.426Z,100245.33
2018-03-31T00:05:04.115Z,100246.20
2018-03-31T00:07:29.753Z,100248.83
2018-03-31T00:09:55.377Z,100246.63
2018-03-31T00:12:20.995Z,100247.52
2018-03-31T00:14:46.755Z,100248.80
2018-03-31T00:17:12.479Z,100260.09
2018-03-31T00:19:38.246Z,100259.65
2018-03-31T00:22:03.886Z,100261.39
2018-03-31T00:24:29.497Z,100248.80
2018-03-31T00:26:55.173Z,100247.06
2018-03-31T00:29:21.066Z,100242.72
2018-03-31T00:31:46.710Z,100245.78
2018-03-31T00:34:12.368Z,100246.66
2018-03-31T00:36:37.998Z,100245.36
2018-03-31T00:39:03.634Z,100232.73
2018-03-31T00:41:29.244Z,100221.88
2018-03-31T00:43:54.861Z,100221.45
2018-03-31T00:46:20.466Z,100215.36
2018-03-31T00:48:46.097Z,100206.66
2018-03-31T00:51:11.778Z,100207.98
2018-03-31T00:53:37.402Z,100206.66
2018-03-31T00:56:03.011Z,100197.56
2018-03-31T00:58:28.698Z,100203.21
2018-03-31T01:00:54.311Z,100193.20
2018-03-31T01:03:19.934Z,100189.72
2018-03-31T01:05:45.535Z,100193.63
2018-03-31T01:08:11.153Z,100195.83
2018-03-31T01:10:36.767Z,100191.02
2018-03-31T01:13:02.395Z,100180.59
2018-03-31T01:15:28.018Z,100178.88
2018-03-31T01:17:53.647Z,100171.94
2018-03-31T01:20:19.293Z,100174.98
2018-03-31T01:22:44.940Z,100174.08
2018-03-31T01:25:10.546Z,100181.48
2018-03-31T01:27:36.170Z,100176.70
2018-03-31T01:30:01.794Z,100177.14
2018-03-31T01:32:27.425Z,100178.44
2018-03-31T01:34:53.039Z,100181.47
2018-03-31T01:37:18.659Z,100180.61
2018-03-31T01:39:44.275Z,100174.52
2018-03-31T01:42:09.878Z,100170.17
2018-03-31T01:44:35.494Z,100158.86
2018-03-31T01:47:01.111Z,100152.79
2018-03-31T01:49:26.730Z,100157.11
2018-03-31T01:51:52.347Z,100151.91
2018-03-31T01:54:18.016Z,100159.73
2018-03-31T01:56:43.588Z,100150.62
2018-03-31T01:59:09.225Z,100162.36
2018-03-31T02:01:34.843Z,100154.11
2018-03-31T02:04:00.467Z,100150.61
2018-03-31T02:06:26.097Z,100147.59
2018-03-31T02:08:51.724Z,100152.78
2018-03-31T02:11:17.342Z,100138.87
2018-03-31T02:13:42.954Z,100145.41
2018-03-31T02:16:08.580Z,100153.66
2018-03-31T02:18:34.201Z,100144.54
2018-03-31T02:20:59.835Z,100145.84
2018-03-31T02:23:25.441Z,100138.45
2018-03-31T02:25:51.080Z,100135.84
2018-03-31T02:28:16.688Z,100151.03
2018-03-31T02:30:42.310Z,100138.86
2018-03-31T02:33:07.911Z,100147.98
2018-03-31T02:35:33.541Z,100156.70
2018-03-31T02:37:59.143Z,100153.21
2018-03-31T02:40:24.778Z,100150.58
2018-03-31T02:42:50.396Z,100150.16
2018-03-31T02:45:16.019Z,100146.24
2018-03-31T02:47:41.631Z,100138.44
2018-03-31T02:50:07.264Z,100142.77
2018-03-31T02:52:32.873Z,100135.40
2018-03-31T02:54:58.502Z,100131.49
2018-03-31T02:57:24.126Z,100127.58
2018-03-31T02:59:49.764Z,100124.97
2018-03-31T03:02:15.388Z,100118.01
2018-03-31T03:04:41.002Z,100125.84
2018-03-31T03:07:06.645Z,100123.22
2018-03-31T03:09:32.265Z,100123.67
2018-03-31T03:11:57.886Z,100124.55
2018-03-31T03:14:23.498Z,100115.85
2018-03-31T03:16:49.179Z,100115.84
2018-03-31T03:19:14.777Z,100117.61
2018-03-31T03:21:40.406Z,100110.20
2018-03-31T03:24:06.024Z,100111.10
2018-03-31T03:26:31.662Z,100114.98
2018-03-31T03:28:57.283Z,100114.56
2018-03-31T03:31:22.904Z,100113.26
2018-03-31T03:33:48.522Z,100108.47
2018-03-31T03:36:14.143Z,100119.34
2018-03-31T03:38:39.761Z,100106.74
2018-03-31T03:41:05.377Z,100109.35
2018-03-31T03:43:30.992Z,100111.52
2018-03-31T03:45:56.614Z,100111.51
2018-03-31T03:48:22.251Z,100118.91
2018-03-31T03:50:47.881Z,100117.61
2018-03-31T03:53:13.502Z,100116.76
2018-03-31T03:55:39.144Z,100113.27
2018-03-31T03:58:04.769Z,100108.52
2018-03-31T04:00:30.370Z,100124.16
2018-03-31T04:02:56.010Z,100116.75
2018-03-31T04:05:21.632Z,100113.30
2018-03-31T04:07:47.262Z,100117.63
2018-03-31T04:10:12.873Z,100112.88
2018-03-31T04:12:38.482Z,100118.08
2018-03-31T04:15:04.113Z,100117.22
2018-03-31T04:17:29.753Z,100118.52
2018-03-31T04:19:55.387Z,100119.83
2018-03-31T04:22:21.009Z,100119.38
2018-03-31T04:24:46.623Z,100126.34
2018-03-31T04:27:12.249Z,100117.22
2018-03-31T04:29:37.853Z,100121.13
2018-03-31T04:32:03.489Z,100122.85
2018-03-31T04:34:29.097Z,100121.97
2018-03-31T04:36:54.707Z,100115.45
2018-03-31T04:39:20.338Z,100122.41
2018-03-31T04:41:45.953Z,100122.85
2018-03-31T04:44:11.579Z,100126.76
2018-03-31T04:46:37.211Z,100128.05
2018-03-31T04:49:02.843Z,100131.97
2018-03-31T04:51:28.477Z,100135.02
2018-03-31T04:53:54.110Z,100134.14
2018-03-31T04:56:19.735Z,100137.19
2018-03-31T04:58:45.361Z,100132.85
2018-03-31T05:01:10.969Z,100129.80
2018-03-31T05:03:36.610Z,100135.90
2018-03-31T05:06:02.245Z,100128.48
2018-03-31T05:08:27.885Z,100133.27
2018-03-31T05:10:53.505Z,100132.41
2018-03-31T05:13:19.145Z,100129.36
2018-03-31T05:15:44.766Z,100133.29
2018-03-31T05:18:10.385Z,100134.59
2018-03-31T05:20:35.990Z,100141.51
2018-03-31T05:23:01.617Z,100142.39
2018-03-31T05:25:27.263Z,100139.36
2018-03-31T05:27:52.897Z,100137.19
2018-03-31T05:30:18.530Z,100131.53
2018-03-31T05:32:44.141Z,100136.28
2018-03-31T05:35:09.778Z,100137.61
2018-03-31T05:37:35.410Z,100137.17
2018-03-31T05:40:01.061Z,100148.03
2018-03-31T05:42:26.703Z,100138.05
2018-03-31T05:44:52.338Z,100131.08
2018-03-31T05:47:17.948Z,100146.28
2018-03-31T05:49:43.597Z,100138.02
2018-03-31T05:52:09.214Z,100140.62
2018-03-31T05:54:34.842Z,100141.48
2018-03-31T05:57:00.458Z,100143.24
2018-03-31T05:59:26.090Z,100140.62
2018-03-31T06:01:51.721Z,100139.76
2018-03-31T06:04:17.362Z,100139.32
2018-03-31T06:06:42.966Z,100139.76
2018-03-31T06:09:08.577Z,100131.91
2018-03-31T06:11:34.202Z,100135.39
2018-03-31T06:13:59.816Z,100141.89
2018-03-31T06:16:25.446Z,100139.71
2018-03-31T06:18:51.059Z,100133.22
2018-03-31T06:21:16.705Z,100142.30
2018-03-31T06:23:42.314Z,100138.38
2018-03-31T06:26:07.952Z,100141.42
2018-03-31T06:28:33.570Z,100138.38
2018-03-31T06:30:59.195Z,100146.64
2018-03-31T06:33:24.814Z,100151.81
2018-03-31T06:35:50.431Z,100144.00
2018-03-31T06:38:16.051Z,100143.56
2018-03-31T06:40:41.679Z,100135.28
2018-03-31T06:43:07.294Z,100142.22
2018-03-31T06:45:32.923Z,100146.13
2018-03-31T06:47:58.538Z,100136.53
2018-03-31T06:50:24.199Z,100141.33
2018-03-31T06:52:49.840Z,100140.00
2018-03-31T06:55:15.462Z,100141.73
2018-03-31T06:57:41.078Z,100138.69
2018-03-31T07:00:06.706Z,100150.39
2018-03-31T07:02:32.335Z,100146.92
2018-03-31T07:04:57.974Z,100147.36
2018-03-31T07:07:23.599Z,100149.94
2018-03-31T07:09:49.227Z,100137.31
2018-03-31T07:12:14.847Z,100136.02
2018-03-31T07:14:40.461Z,100140.79
2018-03-31T07:17:06.093Z,100143.38
2018-03-31T07:19:31.727Z,100135.53
2018-03-31T07:21:57.363Z,100145.95
2018-03-31T07:24:22.979Z,100140.27
2018-03-31T07:26:48.610Z,100148.52
2018-03-31T07:29:14.220Z,100148.55
2018-03-31T07:31:39.834Z,100152.44
2018-03-31T07:34:05.459Z,100155.51
2018-03-31T07:36:31.079Z,100145.50
2018-03-31T07:38:56.700Z,100138.91
2018-03-31T07:41:22.323Z,100144.11
2018-03-31T07:43:47.937Z,100146.25
2018-03-31T07:46:13.558Z,100147.89
2018-03-31T07:48:39.169Z,100156.66
2018-03-31T07:51:04.801Z,100152.25
2018-03-31T07:53:30.447Z,100155.73
2018-03-31T07:55:56.098Z,100147.42
2018-03-31T07:58:21.727Z,100157.92
2018-03-31T08:00:47.363Z,100158.25
2018-03-31T08:03:12.997Z,100160.48
2018-03-31T08:05:38.613Z,100167.48
2018-03-31T08:08:04.243Z,100168.31
2018-03-31T08:10:29.878Z,100166.86
2018-03-31T08:12:55.512Z,100163.77
2018-03-31T08:15:21.135Z,100162.14
2018-03-31T08:17:46.765Z,100166.05
2018-03-31T08:20:12.387Z,100157.68
2018-03-31T08:22:38.009Z,100163.39
2018-03-31T08:25:03.631Z,100163.05
2018-03-31T08:27:29.249Z,100165.20
2018-03-31T08:29:54.890Z,100166.86
2018-03-31T08:32:20.518Z,100168.14
2018-03-31T08:34:46.146Z,100167.34
2018-03-31T08:37:11.758Z,100164.27
2018-03-31T08:39:37.395Z,100159.47
2018-03-31T08:42:03.022Z,100158.98
2018-03-31T08:44:28.644Z,100159.41
2018-03-31T08:46:54.270Z,100156.32
2018-03-31T08:49:19.898Z,100154.95
2018-03-31T08:51:45.530Z,100152.86
2018-03-31T08:54:11.166Z,100159.44
2018-03-31T08:56:36.797Z,100163.33
2018-03-31T08:59:02.438Z,100159.47
2018-03-31T09:01:28.054Z,100161.73
2018-03-31T09:03:53.695Z,100153.39
2018-03-31T09:06:19.311Z,100159.01
2018-03-31T09:08:44.934Z,100157.21
2018-03-31T09:11:10.563Z,100161.01
2018-03-31T09:13:36.180Z,100156.22
2018-03-31T09:16:01.814Z,100153.86
2018-03-31T09:18:27.437Z,100161.45
2018-03-31T09:20:53.075Z,100157.00
2018-03-31T09:23:18.735Z,100159.50
2018-03-31T09:25:44.379Z,100159.16
2018-03-31T09:28:10.007Z,100175.63
2018-03-31T09:30:35.649Z,100176.92
2018-03-31T09:33:01.305Z,100168.39
2018-03-31T09:35:26.921Z,100167.95
2018-03-31T09:37:52.539Z,100171.48
2018-03-31T09:40:18.162Z,100175.36
2018-03-31T09:42:43.783Z,100173.93
2018-03-31T09:45:09.418Z,100166.84
2018-03-31T09:47:35.049Z,100172.43
2018-03-31T09:50:00.682Z,100163.33
2018-03-31T09:52:26.321Z,100164.66
2018-03-31T09:54:51.961Z,100167.28
2018-03-31T09:57:17.594Z,100166.69
2018-03-31T09:59:43.221Z,100172.37
2018-03-31T10:02:08.843Z,100177.87
2018-03-31T10:04:34.473Z,100179.80
2018-03-31T10:07:00.102Z,100181.02
2018-03-31T10:09:25.751Z,100181.42
2018-03-31T10:11:51.389Z,100188.89
2018-03-31T10:14:17.021Z,100185.34
2018-03-31T10:16:42.657Z,100185.40
2018-03-31T10:19:08.282Z,100176.97
2018-03-31T10:21:33.923Z,100177.32
2018-03-31T10:23:59.539Z,100177.95
2018-03-31T10:26:25.161Z,100180.66
2018-03-31T10:28:50.781Z,100183.70
2018-03-31T10:31:16.413Z,100172.83
2018-03-31T10:33:42.045Z,100176.00
2018-03-31T10:36:07.671Z,100165.72
2018-03-31T10:38:33.311Z,100165.20
2018-03-31T10:40:58.958Z,100158.63
2018-03-31T10:43:24.576Z,100156.45
2018-03-31T10:45:50.197Z,100163.51
2018-03-31T10:48:15.806Z,100166.71
2018-03-31T10:50:41.425Z,100163.26
2018-03-31T10:53:07.056Z,100156.64
2018-03-31T10:55:32.682Z,100164.83
2018-03-31T10:57:58.572Z,100162.28
2018-03-31T11:00:24.180Z,100157.91
2018-03-31T11:02:49.810Z,100154.75
2018-03-31T11:05:15.419Z,100156.72
2018-03-31T11:07:41.070Z,100149.39
2018-03-31T11:10:06.678Z,100148.02
2018-03-31T11:12:32.295Z,100151.55
2018-03-31T11:14:57.911Z,100151.95
2018-03-31T11:17:23.529Z,100149.00
2018-03-31T11:19:49.150Z,100148.92
2018-03-31T11:22:14.930Z,100148.09
2018-03-31T11:24:40.559Z,100140.75
2018-03-31T11:29:38.554Z,100132.20
2018-03-31T11:32:04.173Z,100124.37
2018-03-31T11:34:29.787Z,100120.30
2018-03-31T11:36:55.398Z,100117.73
2018-03-31T11:39:21.010Z,100112.64
2018-03-31T11:41:46.657Z,100111.63
2018-03-31T11:44:12.286Z,100114.78
2018-03-31T11:46:37.903Z,100105.75
2018-03-31T11:49:03.516Z,100109.56
2018-03-31T11:51:29.161Z,100119.79
2018-03-31T11:53:54.778Z,100110.02
2018-03-31T11:56:20.390Z,100110.59
2018-03-31T11:58:46.014Z,100104.94
2018-03-31T12:01:11.644Z,100101.31
2018-03-31T12:03:37.280Z,100107.81
2018-03-31T12:06:02.895Z,100099.50
2018-03-31T12:08:28.555Z,100097.94
2018-03-31T12:10:54.122Z,100099.20
2018-03-31T12:13:19.741Z,100103.00
2018-03-31T12:15:45.349Z,100105.75
2018-03-31T12:18:10.970Z,100112.86
2018-03-31T12:20:36.589Z,100104.00
2018-03-31T12:23:02.212Z,100102.59
2018-03-31T12:25:27.830Z,100105.37
2018-03-31T12:27:53.464Z,100114.78
2018-03-31T12:30:19.096Z,100110.05
2018-03-31T12:32:44.710Z,100116.06
2018-03-31T12:35:10.309Z,100111.92
2018-03-31T12:37:35.930Z,100122.70
2018-03-31T12:40:01.552Z,100118.84
2018-03-31T12:42:27.168Z,100114.05
2018-03-31T12:44:52.782Z,100114.25
2018-03-31T12:47:18.386Z,100111.52
2018-03-31T12:49:44.017Z,100111.91
2018-03-31T12:52:09.688Z,100103.30
2018-03-31T12:54:35.307Z,100105.73
2018-03-31T12:57:00.929Z,100110.22
2018-03-31T12:59:26.560Z,100113.95
2018-03-31T13:01:52.166Z,100114.00
2018-03-31T13:04:17.782Z,100112.27
2018-03-31T13:06:43.393Z,100109.54
2018-03-31T13:09:09.008Z,100106.66
2018-03-31T13:11:34.627Z,100110.81
2018-03-31T13:14:00.261Z,100108.48
2018-03-31T13:16:25.867Z,100106.75
2018-03-31T13:18:51.492Z,100107.27
2018-03-31T13:21:17.127Z,100108.47
2018-03-31T13:23:42.742Z,100114.81
2018-03-31T13:26:08.346Z,100116.48
2018-03-31T13:28:33.973Z,100112.13
2018-03-31T13:30:59.623Z,100105.92
2018-03-31T13:33:25.463Z,100110.63
2018-03-31T13:35:51.237Z,100112.19
2018-03-31T13:38:17.162Z,100117.55
2018-03-31T13:40:42.864Z,100108.16
2018-03-31T13:43:08.883Z,100120.30
2018-03-31T13:45:34.707Z,100115.88
2018-03-31T13:48:00.428Z,100120.32
2018-03-31T13:50:26.109Z,100121.59
2018-03-31T13:52:52.674Z,100122.98
2018-03-31T13:55:19.129Z,100117.56
2018-03-31T13:57:44.988Z,100117.18
2018-03-31T14:00:10.804Z,100114.97
2018-03-31T14:02:36.467Z,100114.84
2018-03-31T14:05:02.276Z,100112.69
2018-03-31T14:07:27.995Z,100112.86
2018-03-31T14:09:53.759Z,100109.05
2018-03-31T14:12:19.538Z,100108.23
2018-03-31T14:14:45.190Z,100114.30
2018-03-31T14:17:10.797Z,100102.08
2018-03-31T14:19:36.437Z,100105.44
2018-03-31T14:22:02.075Z,100098.91
2018-03-31T14:24:27.921Z,100100.33
2018-03-31T14:26:53.573Z,100103.83
2018-03-31T14:29:19.203Z,100109.95
2018-03-31T14:31:44.831Z,100111.63
2018-03-31T14:34:10.465Z,100108.72
2018-03-31T14:36:36.113Z,100114.05
2018-03-31T14:39:01.805Z,100122.33
2018-03-31T14:41:27.420Z,100119.66
2018-03-31T14:43:53.018Z,100131.50
2018-03-31T14:46:18.635Z,100124.14
2018-03-31T14:48:44.249Z,100131.17
2018-03-31T14:51:09.883Z,100131.18
2018-03-31T14:53:35.500Z,100135.05
2018-03-31T14:56:01.131Z,100145.66
2018-03-31T14:58:26.754Z,100134.31
2018-03-31T15:00:52.374Z,100131.70
2018-03-31T15:03:17.982Z,100137.75
2018-03-31T15:05:43.585Z,100143.33
2018-03-31T15:08:09.202Z,100146.49
2018-03-31T15:10:34.847Z,100141.83
2018-03-31T15:13:00.434Z,100143.98
2018-03-31T15:15:26.043Z,100147.47
2018-03-31T15:17:51.666Z,100148.81
2018-03-31T15:20:17.273Z,100146.60
2018-03-31T15:22:42.890Z,100146.74
2018-03-31T15:25:08.499Z,100145.34
2018-03-31T15:27:34.106Z,100145.33
2018-03-31T15:29:59.702Z,100143.20
2018-03-31T15:32:25.329Z,100149.31
2018-03-31T15:34:50.967Z,100149.77
2018-03-31T15:37:16.553Z,100142.33
2018-03-31T15:39:42.164Z,100147.42
2018-03-31T15:42:07.786Z,100145.34
2018-03-31T15:44:33.390Z,100148.87
2018-03-31T15:46:59.005Z,100141.94
2018-03-31T15:49:24.613Z,100135.48
2018-03-31T15:51:50.249Z,100140.70
2018-03-31T15:54:15.858Z,100140.72
2018-03-31T15:56:41.485Z,100143.73
2018-03-31T15:59:07.097Z,100142.87
2018-03-31T16:01:32.709Z,100146.88
2018-03-31T16:03:58.332Z,100149.92
2018-03-31T16:06:23.950Z,100144.30
2018-03-31T16:08:49.566Z,100151.71
2018-03-31T16:11:15.171Z,100148.61
2018-03-31T16:13:40.810Z,100146.52
2018-03-31T16:16:07.218Z,100153.04
2018-03-31T16:18:32.845Z,100156.11
2018-03-31T16:20:58.494Z,100148.70
2018-03-31T16:23:24.085Z,100152.61
2018-03-31T16:25:49.685Z,100152.61
2018-03-31T16:28:15.301Z,100148.28
2018-03-31T16:30:40.917Z,100160.86
2018-03-31T16:33:06.534Z,100155.24
2018-03-31T16:35:32.143Z,100155.22
2018-03-31T16:37:57.766Z,100161.34
2018-03-31T16:40:23.373Z,100160.91
2018-03-31T16:42:48.982Z,100164.38
2018-03-31T16:45:14.626Z,100164.47
2018-03-31T16:47:40.238Z,100168.84
2018-03-31T16:50:05.861Z,100171.06
2018-03-31T16:52:31.494Z,100176.27
2018-03-31T16:54:57.122Z,100171.06
2018-03-31T16:57:22.725Z,100172.81
2018-03-31T16:59:48.351Z,100171.95
2018-03-31T17:02:13.957Z,100168.03
2018-03-31T17:04:39.576Z,100171.06
2018-03-31T17:07:05.183Z,100180.17
2018-03-31T17:09:30.801Z,100180.60
2018-03-31T17:11:56.397Z,100183.63
2018-03-31T17:14:22.020Z,100181.88
2018-03-31T17:16:47.694Z,100179.30
2018-03-31T17:19:13.275Z,100186.22
2018-03-31T17:21:38.884Z,100174.06
2018-03-31T17:24:04.889Z,100179.70
2018-03-31T17:26:30.525Z,100185.36
2018-03-31T17:28:56.162Z,100192.73
2018-03-31T17:31:21.769Z,100192.30
2018-03-31T17:33:47.402Z,100195.77
2018-03-31T17:36:13.013Z,100194.88
2018-03-31T17:38:38.622Z,100190.11
2018-03-31T17:41:04.255Z,100198.34
2018-03-31T17:43:29.866Z,100198.36
2018-03-31T17:45:55.484Z,100201.39
2018-03-31T17:48:21.081Z,100198.81
2018-03-31T17:50:46.718Z,100197.94
2018-03-31T17:53:12.318Z,100199.66
2018-03-31T17:55:37.950Z,100201.81
2018-03-31T17:58:03.554Z,100205.27
2018-03-31T18:00:29.177Z,100204.87
2018-03-31T18:02:54.781Z,100201.39
2018-03-31T18:05:20.405Z,100204.41
2018-03-31T18:07:46.006Z,100205.71
2018-03-31T18:10:11.627Z,100203.98
2018-03-31T18:12:37.231Z,100206.16
2018-03-31T18:15:02.845Z,100203.13
2018-03-31T18:17:28.467Z,100209.64
2018-03-31T18:19:54.100Z,100201.81
2018-03-31T18:22:19.702Z,100202.67
2018-03-31T18:24:45.308Z,100204.87
2018-03-31T18:27:10.922Z,100206.16
2018-03-31T18:29:36.522Z,100210.91
2018-03-31T18:32:02.133Z,100212.66
2018-03-31T18:34:27.733Z,100211.77
2018-03-31T18:36:53.358Z,100217.02
2018-03-31T18:39:18.962Z,100222.65
2018-03-31T18:41:44.588Z,100220.03
2018-03-31T18:44:10.199Z,100224.38
2018-03-31T18:46:35.808Z,100224.81
2018-03-31T18:49:01.422Z,100217.88
2018-03-31T18:51:27.103Z,100223.08
2018-03-31T18:53:52.686Z,100222.64
2018-03-31T18:56:18.293Z,100227.00
2018-03-31T18:58:43.897Z,100220.03
2018-03-31T19:01:09.513Z,100223.00
2018-03-31T19:03:35.198Z,100222.61
2018-03-31T19:06:00.813Z,100217.42
2018-03-31T19:08:26.418Z,100220.89
2018-03-31T19:10:52.058Z,100219.61
2018-03-31T19:13:17.670Z,100218.33
2018-03-31T19:15:43.299Z,100213.96
2018-03-31T19:18:08.919Z,100216.13
2018-03-31T19:20:34.530Z,100217.02
2018-03-31T19:23:00.155Z,100213.13
2018-03-31T19:25:31.953Z,100210.94
2018-03-31T19:27:57.582Z,100207.46
2018-03-31T19:30:29.197Z,100211.80
2018-03-31T19:32:54.819Z,100212.23
2018-03-31T19:35:20.443Z,100207.47
2018-03-31T19:37:46.068Z,100205.72
2018-03-31T19:40:11.684Z,100204.01
2018-03-31T19:42:37.308Z,100200.97
2018-03-31T19:45:02.921Z,100206.60
2018-03-31T19:47:28.533Z,100202.25
2018-03-31T19:49:54.137Z,100204.44
2018-03-31T19:52:19.763Z,100205.72
2018-03-31T19:54:45.384Z,100200.11
2018-03-31T19:57:10.994Z,100201.83
2018-03-31T19:59:36.598Z,100203.12
2018-03-31T20:02:02.218Z,100205.30
2018-03-31T20:04:27.877Z,100204.44
2018-03-31T20:06:53.446Z,100200.11
2018-03-31T20:09:19.100Z,100205.73
2018-03-31T20:11:44.684Z,100203.13
2018-03-31T20:14:10.281Z,100191.41
2018-03-31T20:16:35.905Z,100204.89
2018-03-31T20:19:01.521Z,100200.13
2018-03-31T20:21:27.122Z,100200.11
2018-03-31T20:23:52.748Z,100198.81
2018-03-31T20:26:18.357Z,100196.63
2018-03-31T20:28:43.970Z,100191.45
2018-03-31T20:31:09.589Z,100186.67
2018-03-31T20:33:35.193Z,100190.13
2018-03-31T20:36:00.790Z,100188.84
2018-03-31T20:38:26.402Z,100189.70
2018-03-31T20:40:52.011Z,100188.83
2018-03-31T20:43:17.636Z,100185.36
2018-03-31T20:45:43.242Z,100181.02
2018-03-31T20:48:08.853Z,100180.61
2018-03-31T20:50:34.457Z,100171.92
2018-03-31T20:53:00.061Z,100175.39
2018-03-31T20:55:25.696Z,100171.05
2018-03-31T20:57:51.305Z,100166.72
2018-03-31T21:00:16.923Z,100170.18
2018-03-31T21:02:42.535Z,100168.88
2018-03-31T21:05:08.139Z,100167.16
2018-03-31T21:07:33.757Z,100166.30
2018-03-31T21:09:59.374Z,100164.99
2018-03-31T21:12:24.986Z,100165.41
2018-03-31T21:14:50.613Z,100162.39
2018-03-31T21:17:16.217Z,100163.23
2018-03-31T21:19:41.837Z,100164.09
2018-03-31T21:22:07.447Z,100162.80
2018-03-31T21:24:33.053Z,100162.80
2018-03-31T21:26:58.645Z,100162.39
2018-03-31T21:29:24.261Z,100161.09
2018-03-31T21:31:49.862Z,100164.98
2018-03-31T21:34:15.492Z,100165.42
2018-03-31T21:36:41.097Z,100168.91
2018-03-31T21:39:06.787Z,100166.28
2018-03-31T21:41:32.390Z,100171.49
2018-03-31T21:43:57.999Z,100175.84
2018-03-31T21:46:23.606Z,100178.44
2018-03-31T21:48:49.234Z,100185.38
2018-03-31T21:51:14.869Z,100188.86
2018-03-31T21:53:40.489Z,100181.92
2018-03-31T21:56:06.410Z,100181.92
2018-03-31T21:58:32.026Z,100185.39
2018-03-31T22:00:57.638Z,100187.13
2018-03-31T22:03:23.256Z,100181.48
2018-03-31T22:05:48.874Z,100178.42
2018-03-31T22:08:14.481Z,100180.17
2018-03-31T22:10:40.102Z,100176.72
2018-03-31T22:13:11.896Z,100174.97
2018-03-31T22:15:43.893Z,100168.91
2018-03-31T22:18:09.517Z,100169.31
2018-03-31T22:20:35.130Z,100174.53
2018-03-31T22:23:00.745Z,100169.33
2018-03-31T22:25:26.366Z,100168.01
2018-03-31T22:27:51.978Z,100176.27
2018-03-31T22:30:17.599Z,100172.81
2018-03-31T22:32:43.215Z,100175.84
2018-03-31T22:35:08.874Z,100174.95
2018-03-31T22:37:34.490Z,100170.61
2018-03-31T22:40:00.102Z,100165.84
2018-03-31T22:42:25.709Z,100158.03
2018-03-31T22:44:51.331Z,100162.81
2018-03-31T22:47:16.951Z,100165.84
2018-03-31T22:49:42.553Z,100161.09
2018-03-31T22:52:08.194Z,100168.91
2018-03-31T22:54:33.806Z,100165.84
2018-03-31T22:56:59.425Z,100173.67
2018-03-31T22:59:25.025Z,100171.48
2018-03-31T23:01:50.649Z,100176.28
2018-03-31T23:04:16.249Z,100176.28
2018-03-31T23:06:41.865Z,100175.41
2018-03-31T23:09:07.489Z,100175.81
2018-03-31T23:11:33.098Z,100172.35
2018-03-31T23:13:58.714Z,100175.40
2018-03-31T23:16:24.338Z,100173.66
2018-03-31T23:18:49.963Z,100181.05
2018-03-31T23:21:15.595Z,100175.41
2018-03-31T23:23:41.226Z,100174.97
2018-03-31T23:26:06.843Z,100175.41
2018-03-31T23:28:32.440Z,100177.12
2018-03-31T23:30:58.054Z,100173.66
2018-03-31T23:33:23.657Z,100169.32
2018-03-31T23:35:49.285Z,100171.05
2018-03-31T23:38:14.917Z,100171.48
2018-03-31T23:40:40.526Z,100177.14
2018-03-31T23:43:06.150Z,100171.06
2018-03-31T23:45:31.771Z,100181.48
2018-03-31T23:47:57.405Z,100177.58
2018-03-31T23:50:23.034Z,100173.22
2018-03-31T23:52:48.658Z,100174.11
2018-03-31T23:55:14.262Z,100169.33
2018-03-31T23:57:39.878Z,100168.47
